Terminal Aerodrome Forecast
Issued by NWS

Home | Current Version | Previous Version | Text Only | Print | Product List | Glossary On
Versions: 1 2 3 4 5 6 7 8 9 10 11 12 13 14 15 16 17
612
FTUS46 KMTR 171733
TAFSJC
TAF
KSJC 171733Z 1718/1818 32007KT 6SM BR FEW008 BKN060 OVC100
     FM172200 33007KT P6SM BKN200
     FM180300 VRB03KT P6SM BKN150
     FM180900 16005KT P6SM BKN100
     FM181500 12012KT 6SM -DZ BR OVC100=

USA.gov is the U.S. government's official web portal to all federal, state and local government web resources and services.